This is the latest recevied weather packets stored in our database for station/object W1QED. If no packets are shown the sender has not sent any weather packets the latest 1 day(s).
| Time | Temp. | Humidity | Pressure | Rain* | Wind** | Luminosity | Snow |
|---|---|---|---|---|---|---|---|
| 1778020518 | 24.44° C | 31% | 1006 hPa | 0 mm | 5.36 m/s, 193° | - | - |
| 1778020217 | 24.44° C | 30% | 1005.6 hPa | 0 mm | 4.92 m/s, 199° | - | - |
| 1778019917 | 24.44° C | 29% | 1005.6 hPa | 0 mm | 5.36 m/s, 209° | - | - |
| 1778019616 | 25° C | 29% | 1005.6 hPa | 0 mm | 4.92 m/s, 216° | - | - |
| 1778019318 | 25° C | 28% | 1005.7 hPa | 0 mm | 4.02 m/s, 246° | - | - |
| 1778019016 | 25° C | 29% | 1005.3 hPa | 0 mm | 4.92 m/s, 212° | - | - |
| 1778018712 | 25° C | 28% | 1005.4 hPa | 0 mm | 3.58 m/s, 247° | - | - |
| 1778018412 | 25° C | 28% | 1005.4 hPa | 0 mm | 4.92 m/s, 208° | - | - |
| 1778018112 | 25.56° C | 27% | 1005.2 hPa | 0 mm | 5.36 m/s, 248° | - | - |
| 1778017812 | 25.56° C | 27% | 1005 hPa | 0 mm | 4.92 m/s, 265° | - | - |
| 1778017513 | 25.56° C | 26% | 1005 hPa | 0 mm | 5.36 m/s, 219° | - | - |
| 1778017210 | 25.56° C | 26% | 1005.4 hPa | 0 mm | 6.26 m/s, 217° | - | - |
| 1778016911 | 25.56° C | 26% | 1005.4 hPa | 0 mm | 4.02 m/s, 303° | - | - |
| 1778016684 | 26.11° C | 25% | 1005.3 hPa | 0 mm | 5.36 m/s, 217° | - | - |
| 1778016307 | 25.56° C | 25% | 1005.1 hPa | 0 mm | 4.92 m/s, 251° | - | - |
| 1778016005 | 26.11° C | 25% | 1005.2 hPa | 0 mm | 5.81 m/s, 217° | - | - |
| 1778015705 | 26.11° C | 24% | 1005.1 hPa | 0 mm | 6.26 m/s, 216° | - | - |
| 1778015405 | 26.11° C | 24% | 1005 hPa | 0 mm | 4.92 m/s, 198° | - | - |
| 1778015102 | 26.11° C | 24% | 1005.1 hPa | 0 mm | 4.92 m/s, 240° | - | - |
| 1778014801 | 26.11° C | 25% | 1005 hPa | 0 mm | 3.58 m/s, 236° | - | - |
| 1778014502 | 26.67° C | 24% | 1005 hPa | 0 mm | 5.81 m/s, 231° | - | - |
| 1778014262 | 26.67° C | 23% | 1005 hPa | 0 mm | 4.92 m/s, 207° | - | - |
| 1778013959 | 26.67° C | 23% | 1005 hPa | 0 mm | 5.81 m/s, 198° | - | - |
| 1778013657 | 26.67° C | 23% | 1005.1 hPa | 0 mm | 5.81 m/s, 228° | - | - |
| 1778013357 | 26.67° C | 22% | 1005.3 hPa | 0 mm | 7.6 m/s, 141° | - | - |
* Rain since midnight (hover to see other rain measurements)
** Current wind speed in m/s (hover to see current wind gust speed)